Latest Coastal Weather Observations for Gladstone

IDQ60701

Issued at 5:12 am EST Sunday 23 July 2017 (issued every 10 minutes, with the page automatically refreshed every 10 minutes)

About coastal observations | Map of coastal stations | Coastal observations for QLD | Marine services | Other Formats
Station Details ID: 039123 Name: GLADSTONE RADAR Lat: -23.86 Lon: 151.26 Height: 74.5 m
Data from the previous 72 hours. | See also: Recent months at Gladstone
Date/Time
EST
Temp
°C
Wind Pressure Rain since
9am
mm
Weather Cloud Vis
km
Sea
Height
m
Swell
Dir  Spd
kts
Gust
kts
hPa Trend Height
m
Period
s
Dir
23/05:00am 14.5 S 7 8 1020.5 - 0.0 - - - - - - -
23/04:30am 15.5 S 8 10 1020.2 - 0.0 - - - - - - -
23/04:00am 15.1 S 8 10 1020.4 - 0.0 - - - - - - -
23/03:30am 14.9 S 8 9 1020.4 - 0.0 - - - - - - -
23/03:00am 15.3 S 8 9 1020.5 - 0.0 - - - - - - -
23/02:30am 16.0 S 8 10 1020.5 - 0.0 - - - - - - -
23/02:00am 16.3 SSE 8 10 1020.8 - 0.0 - - - - - - -
23/01:30am 16.2 SSE 7 9 1020.9 - 0.0 - - - - - - -
23/01:00am 16.3 SSE 7 10 1021.1 - 0.0 - - - - - - -
23/12:30am 16.3 SE 7 9 1021.2 - 0.0 - - - - - - -
23/12:00am 16.5 SE 7 9 1021.5 - 0.0 - - - - - - -
 
Date/Time
EST
Temp
°C
Wind Pressure Rain since
9am
mm
Weather Cloud Vis
km
Sea
Height
m
Swell
Dir  Spd
kts
Gust
kts
hPa Trend Height
m
Period
s
Dir
22/11:30pm 16.6 E 6 7 1021.6 - 0.0 - - - - - - -
22/11:00pm 16.7 E 6 7 1021.7 - 0.0 - - - - - - -
22/10:30pm 16.9 E 6 8 1021.8 - 0.0 - - - - - - -
22/10:00pm 16.9 E 6 8 1022.0 - 0.0 - - - - - - -
22/09:30pm 17.0 E 6 8 1022.1 - 0.0 - - - - - - -
22/09:00pm 17.4 E 8 11 1021.9 - 0.0 - - - - - - -
22/08:30pm 17.6 E 9 12 1021.5 - 0.0 - - - - - - -
22/08:00pm 17.5 E 9 11 1021.3 - 0.0 - - - - - - -
22/07:30pm 17.6 E 9 11 1020.9 - 0.0 - - - - - - -
22/07:00pm 17.6 E 9 11 1020.7 - 0.0 - - - - - - -
22/06:30pm 17.7 E 9 12 1020.4 - 0.0 - - - - - - -
22/06:00pm 17.7 E 9 12 1020.2 - 0.0 - - - - - - -
22/05:30pm 18.0 ENE 9 11 1020.0 - 0.0 - - - - - - -
22/05:00pm 18.9 ENE 9 12 1019.8 - 0.0 - - - - - - -
22/04:30pm 20.1 ENE 9 14 1019.7 - 0.0 - - - - - - -
22/04:00pm 20.9 E 8 11 1019.6 - 0.0 - - - - - - -
22/03:30pm 21.9 ENE 7 12 1019.6 - 0.0 - - - - - - -
22/03:00pm 22.6 ENE 8 11 1019.7 - 0.0 - - - - - - -
22/02:30pm 22.3 ENE 9 14 1019.8 - 0.0 - - - - - - -
22/02:00pm 22.2 E 9 13 1020.0 - 0.0 - - - - - - -
22/01:30pm 23.0 ENE 8 14 1020.4 - 0.0 - - - - - - -
22/01:00pm 22.9 ENE 7 11 1020.7 - 0.0 - - - - - - -
22/12:30pm 23.1 ENE 8 13 1021.0 - 0.0 - - - - - - -
22/12:00pm 22.6 E 8 11 1021.5 - 0.0 - - - - - - -
22/11:30am 22.4 E 7 11 1022.0 - 0.0 - - - - - - -
22/11:00am 21.5 E 8 14 1022.4 - 0.0 - - - - - - -
22/10:30am 20.8 ESE 9 15 1022.9 - 0.0 - - - - - - -
22/10:00am 19.8 SE 8 14 1023.1 - 0.0 - - - - - - -
22/09:30am 18.8 SE 8 14 1023.0 - 0.0 - - - - - - -
22/09:00am 17.4 SE 8 14 1022.9 - 0.0 - - - - - - -
22/08:30am 16.1 SE 6 13 1022.7 - 0.0 - - - - - - -
22/08:00am 14.1 SSE 5 10 1022.4 - 0.0 - - - - - - -
22/07:30am 13.5 S 5 7 1022.2 - 0.0 - - - - - - -
22/07:00am 13.3 S 7 9 1021.8 - 0.0 - - - - - - -
22/06:30am 12.1 S 6 8 1021.5 - 0.0 - - - - - - -
22/06:00am 11.9 S 6 9 1021.1 - 0.0 - - - - - - -
22/05:30am 11.8 S 5 6 1020.6 - 0.0 - - - - - - -
22/05:00am 11.3 S 5 6 1020.3 - 0.0 - - - - - - -
22/04:30am 13.3 S 5 7 1020.1 - 0.0 - - - - - - -
22/04:00am 14.6 S 7 9 1020.1 - 0.0 - - - - - - -
22/03:30am 13.1 S 5 7 1020.1 - 0.0 - - - - - - -
22/03:00am 14.2 S 6 8 1020.1 - 0.0 - - - - - - -
22/02:30am 14.8 NNE 6 7 1020.0 - 0.0 - - - - - - -
22/02:00am 14.6 NNE 5 6 1020.0 - 0.0 - - - - - - -
22/01:30am 14.8 NNE 5 6 1020.2 - 0.0 - - - - - - -
22/01:00am 14.9 NNE 4 5 1020.4 - 0.0 - - - - - - -
22/12:30am 15.3 NNE 4 5 1020.6 - 0.0 - - - - - - -
22/12:00am 15.3 NNE 5 6 1020.6 - 0.0 - - - - - - -
 
Date/Time
EST
Temp
°C
Wind Pressure Rain since
9am
mm
Weather Cloud Vis
km
Sea
Height
m
Swell
Dir  Spd
kts
Gust
kts
hPa Trend Height
m
Period
s
Dir
21/11:30pm 15.9 NNE 5 6 1020.6 - 0.0 - - - - - - -
21/11:00pm 15.8 NNE 5 5 1020.7 - 0.0 - - - - - - -
21/10:30pm 15.9 NNE 4 5 1021.0 - 0.0 - - - - - - -
21/10:00pm 16.0 NNE 4 6 1021.0 - 0.0 - - - - - - -
21/09:30pm 16.1 NNE 5 5 1021.0 - 0.0 - - - - - - -
21/09:00pm 16.6 NNE 3 4 1020.7 - 0.0 - - - - - - -
21/08:30pm 16.3 NNE 1 4 1020.1 - 0.0 - - - - - - -
21/08:00pm 15.8 NNE 4 5 1019.7 - 0.0 - - - - - - -
21/07:30pm 16.6 NNE 4 5 1019.4 - 0.0 - - - - - - -
21/07:00pm 16.3 NNE 3 4 1019.0 - 0.0 - - - - - - -
21/06:30pm 17.5 NNE 4 4 1018.4 - 0.0 - - - - - - -
21/06:00pm 17.4 NNE 4 5 1018.0 - 0.0 - - - - - - -
21/05:30pm 17.7 NNE 5 6 1017.6 - 0.0 - - - - - - -
21/05:00pm 18.9 NNE 4 7 1017.3 - 0.0 - - - - - - -
21/04:30pm 20.3 NNE 5 9 1016.8 - 0.0 - - - - - - -
21/04:00pm 21.5 NE 6 9 1016.6 - 0.0 - - - - - - -
21/03:30pm 22.2 NE 5 9 1016.5 - 0.0 - - - - - - -
21/03:00pm 22.5 NE 5 9 1016.5 - 0.0 - - - - - - -
21/02:30pm 22.7 SW 5 9 1016.7 - 0.0 - - - - - - -
21/02:00pm 22.2 SW 1 6 1017.2 - 0.0 - - - - - - -
21/01:30pm 21.9 S 4 7 1017.5 - 0.0 - - - - - - -
21/01:00pm 21.2 SW 6 11 1018.0 - 0.0 - - - - - - -
21/12:30pm 20.4 S 9 15 1018.4 - 0.0 - - - - - - -
21/12:00pm 19.4 SSW 8 13 1018.8 - 0.0 - - - - - - -
21/11:30am 19.5 S 7 15 1019.2 - 0.0 - - - - - - -
21/11:00am 18.2 SSW 9 15 1019.6 - 0.0 - - - - - - -
21/10:30am 17.6 SSW 9 15 1020.2 - 0.0 - - - - - - -
21/10:00am 16.8 SSW 8 13 1020.4 - 0.0 - - - - - - -
21/09:30am 15.5 SSW 9 14 1020.3 - 0.0 - - - - - - -
21/09:00am 14.6 SSW 7 15 1020.4 - 0.0 - - - - - - -
21/08:30am 13.7 SSW 8 12 1020.0 - 0.0 - - - - - - -
21/08:00am 12.7 SSW 10 16 1020.0 - 0.0 - - - - - - -
21/07:30am 12.4 SW 11 17 1019.8 - 0.0 - - - - - - -
21/07:00am 12.6 SW 11 19 1019.1 - 0.0 - - - - - - -
21/06:30am 12.9 SW 10 16 1018.9 - 0.0 - - - - - - -
21/06:00am 12.9 SSW 10 16 1018.7 - 0.0 - - - - - - -
21/05:30am 13.1 SW 11 18 1018.5 - 0.0 - - - - - - -
21/05:00am 13.5 SSW 11 16 1018.3 - 0.0 - - - - - - -
21/04:30am 13.6 SW 10 16 1017.9 - 0.0 - - - - - - -
21/04:00am 13.7 SSW 11 18 1017.6 - 0.0 - - - - - - -
21/03:30am 14.4 SSW 10 15 1017.6 - 0.0 - - - - - - -
21/03:00am 14.6 SSW 8 11 1017.4 - 0.0 - - - - - - -
21/02:30am 15.0 SSW 7 9 1017.2 - 0.0 - - - - - - -
21/02:00am 15.6 SW 7 9 1017.4 - 0.0 - - - - - - -
21/01:30am 15.5 SW 7 9 1017.5 - 0.0 - - - - - - -
21/01:00am 15.4 NW 5 6 1017.6 - 0.0 - - - - - - -
21/12:30am 15.1 NW 4 5 1017.7 - 0.0 - - - - - - -
21/12:00am 14.8 NW 4 6 1018.0 - 0.0 - - - - - - -
 
Date/Time
EST
Temp
°C
Wind Pressure Rain since
9am
mm
Weather Cloud Vis
km
Sea
Height
m
Swell
Dir  Spd
kts
Gust
kts
hPa Trend Height
m
Period
s
Dir
20/11:30pm 15.0 NW 4 5 1018.1 - 0.0 - - - - - - -
20/11:00pm 15.3 NW 4 5 1018.1 - 0.0 - - - - - - -
20/10:30pm 15.6 NW 3 4 1018.1 - 0.0 - - - - - - -
20/10:00pm 15.6 NW 3 4 1018.0 - 0.0 - - - - - - -
20/09:30pm 15.8 NW 4 5 1017.9 - 0.0 - - - - - - -
20/09:00pm 16.4 NW 4 5 1017.8 - 0.0 - - - - - - -
20/08:30pm 15.6 NW 2 3 1017.7 - 0.0 - - - - - - -
20/08:00pm 15.9 NW 3 4 1017.7 - 0.0 - - - - - - -
20/07:30pm 16.5 NW 3 5 1017.5 - 0.0 - - - - - - -
20/07:00pm 16.7 NW 6 8 1017.2 - 0.0 - - - - - - -
20/06:30pm 17.0 NNW 8 11 1017.0 - 0.0 - - - - - - -
20/06:00pm 17.3 N 6 10 1016.7 - 0.0 - - - - - - -
20/05:30pm 17.5 NNE 4 8 1016.2 - 0.0 - - - - - - -
20/05:00pm 18.8 NNE 5 10 1015.8 - 0.0 - - - - - - -
20/04:30pm 20.5 NE 6 10 1015.2 - 0.0 - - - - - - -
20/04:00pm 22.1 NE 5 7 1015.1 - 0.0 - - - - - - -
20/03:30pm 22.5 NE 4 8 1015.1 - 0.0 - - - - - - -
20/03:00pm 22.9 NE 5 9 1015.3 - 0.0 - - - - - - -
20/02:30pm 23.2 NE 6 9 1015.4 - 0.0 - - - - - - -
20/02:00pm 22.5 SSW 3 6 1015.6 - 0.0 - - - - - - -
20/01:30pm 22.4 SSW 3 8 1015.9 - 0.0 - - - - - - -
20/01:00pm 20.9 SW 6 9 1016.6 - 0.0 - - - - - - -
20/12:30pm 21.4 WSW 4 7 1017.3 - 0.0 - - - - - - -
20/12:00pm 21.1 SW 5 9 1017.9 - 0.0 - - - - - - -
20/11:30am 20.2 SW 4 8 1018.6 - 0.0 - - - - - - -
20/11:00am 18.8 SW 7 13 1018.8 - 0.0 - - - - - - -
20/10:30am 17.7 SW 6 11 1019.3 - 0.0 - - - - - - -
20/10:00am 17.0 SSW 7 14 1019.5 - 0.0 - - - - - - -
20/09:30am 16.8 S 7 15 1019.3 - 0.0 - - - - - - -
20/09:00am 15.5 S 10 15 1019.5 - 0.2 - - - - - - -
20/08:30am 15.4 SSE 6 13 1019.7 - 0.2 - - - - - - -
20/08:00am 14.6 S 6 11 1019.2 - 0.2 - - - - - - -
20/07:30am 13.5 SSE 5 8 1018.7 - 0.2 - - - - - - -
20/07:00am 12.6 SSE 3 7 1018.2 - 0.2 - - - - - - -
20/06:30am 13.1 SSW 9 13 1017.8 - 0.2 - - - - - - -
20/06:00am 13.0 SSW 8 13 1017.3 - 0.2 - - - - - - -
20/05:30am 12.9 CALM 0 3 1017.4 - 0.2 - - - - - - -

Other Formats:

Comma delimited format used in spreadsheet applications
http://www.bom.gov.au/fwo/IDQ60701/IDQ60701.94380.axf

JavaScript Object Notation format (JSON) in row-major order
http://www.bom.gov.au/fwo/IDQ60701/IDQ60701.94380.json